sensor_id;sensor_type;location;lat;lon;timestamp;temperature;humidity
71754;DHT22;59593;51.716;7.016;2023-11-19T00:01:33;10.70;99.90
71754;DHT22;59593;51.716;7.016;2023-11-19T00:03:58;10.80;99.90
71754;DHT22;59593;51.716;7.016;2023-11-19T00:06:24;10.80;99.90
71754;DHT22;59593;51.716;7.016;2023-11-19T00:08:51;10.80;99.90
71754;DHT22;59593;51.716;7.016;2023-11-19T00:11:16;10.80;99.90
71754;DHT22;59593;51.716;7.016;2023-11-19T00:13:42;10.80;99.90
71754;DHT22;59593;51.716;7.016;2023-11-19T00:16:08;10.80;99.90
71754;DHT22;59593;51.716;7.016;2023-11-19T00:18:35;10.90;99.90
71754;DHT22;59593;51.716;7.016;2023-11-19T00:21:01;10.90;99.90
71754;DHT22;59593;51.716;7.016;2023-11-19T00:23:28;10.90;99.90
71754;DHT22;59593;51.716;7.016;2023-11-19T00:25:53;10.90;99.90
71754;DHT22;59593;51.716;7.016;2023-11-19T00:28:19;11.00;99.90
71754;DHT22;59593;51.716;7.016;2023-11-19T00:30:44;10.90;99.90
71754;DHT22;59593;51.716;7.016;2023-11-19T00:33:10;11.00;99.90
71754;DHT22;59593;51.716;7.016;2023-11-19T00:35:36;11.00;99.90
71754;DHT22;59593;51.716;7.016;2023-11-19T00:38:02;11.10;99.90
71754;DHT22;59593;51.716;7.016;2023-11-19T00:40:29;11.20;99.90
71754;DHT22;59593;51.716;7.016;2023-11-19T00:42:54;11.20;99.90
71754;DHT22;59593;51.716;7.016;2023-11-19T00:45:20;11.20;99.90
71754;DHT22;59593;51.716;7.016;2023-11-19T00:47:46;11.20;99.90
71754;DHT22;59593;51.716;7.016;2023-11-19T00:50:12;11.20;99.90
71754;DHT22;59593;51.716;7.016;2023-11-19T00:52:38;11.20;99.90
71754;DHT22;59593;51.716;7.016;2023-11-19T00:55:04;11.30;99.90
71754;DHT22;59593;51.716;7.016;2023-11-19T00:57:31;11.30;99.90
71754;DHT22;59593;51.716;7.016;2023-11-19T00:59:58;11.40;99.90
71754;DHT22;59593;51.716;7.016;2023-11-19T01:02:24;11.30;99.90
71754;DHT22;59593;51.716;7.016;2023-11-19T01:04:50;11.40;99.90
71754;DHT22;59593;51.716;7.016;2023-11-19T01:07:16;11.40;99.90
71754;DHT22;59593;51.716;7.016;2023-11-19T01:09:42;11.50;99.90
71754;DHT22;59593;51.716;7.016;2023-11-19T01:12:08;11.50;99.90
71754;DHT22;59593;51.716;7.016;2023-11-19T01:14:34;11.60;99.90
71754;DHT22;59593;51.716;7.016;2023-11-19T01:17:01;11.60;99.90
71754;DHT22;59593;51.716;7.016;2023-11-19T01:19:26;11.60;99.90
71754;DHT22;59593;51.716;7.016;2023-11-19T01:21:54;11.70;99.90
71754;DHT22;59593;51.716;7.016;2023-11-19T01:24:20;11.80;99.90
71754;DHT22;59593;51.716;7.016;2023-11-19T01:26:46;11.80;99.90
71754;DHT22;59593;51.716;7.016;2023-11-19T01:29:12;11.90;99.90
71754;DHT22;59593;51.716;7.016;2023-11-19T01:31:45;12.00;99.90
71754;DHT22;59593;51.716;7.016;2023-11-19T01:34:12;12.00;99.90
71754;DHT22;59593;51.716;7.016;2023-11-19T01:36:38;12.10;99.90
71754;DHT22;59593;51.716;7.016;2023-11-19T01:39:04;12.10;99.90
71754;DHT22;59593;51.716;7.016;2023-11-19T01:41:34;12.20;99.90
71754;DHT22;59593;51.716;7.016;2023-11-19T01:44:00;12.20;99.90
71754;DHT22;59593;51.716;7.016;2023-11-19T01:46:26;12.30;99.90
71754;DHT22;59593;51.716;7.016;2023-11-19T01:48:52;12.30;99.90
71754;DHT22;59593;51.716;7.016;2023-11-19T01:51:19;12.30;99.90
71754;DHT22;59593;51.716;7.016;2023-11-19T01:53:46;12.40;99.90
71754;DHT22;59593;51.716;7.016;2023-11-19T01:56:14;12.40;99.90
71754;DHT22;59593;51.716;7.016;2023-11-19T01:58:42;12.50;99.90
71754;DHT22;59593;51.716;7.016;2023-11-19T02:01:09;12.50;99.90
71754;DHT22;59593;51.716;7.016;2023-11-19T02:03:36;12.60;99.90
71754;DHT22;59593;51.716;7.016;2023-11-19T02:06:03;12.60;99.90
71754;DHT22;59593;51.716;7.016;2023-11-19T02:08:29;12.70;99.90
71754;DHT22;59593;51.716;7.016;2023-11-19T02:10:55;12.60;99.90
71754;DHT22;59593;51.716;7.016;2023-11-19T02:13:26;12.70;99.90
71754;DHT22;59593;51.716;7.016;2023-11-19T02:15:52;12.70;99.90
71754;DHT22;59593;51.716;7.016;2023-11-19T02:20:44;12.80;99.90
71754;DHT22;59593;51.716;7.016;2023-11-19T02:23:09;12.70;99.90
71754;DHT22;59593;51.716;7.016;2023-11-19T02:25:35;12.70;99.90
71754;DHT22;59593;51.716;7.016;2023-11-19T02:28:02;12.80;99.90
71754;DHT22;59593;51.716;7.016;2023-11-19T02:30:28;12.80;99.90
71754;DHT22;59593;51.716;7.016;2023-11-19T02:32:55;12.70;99.90
71754;DHT22;59593;51.716;7.016;2023-11-19T02:35:27;12.80;99.90
71754;DHT22;59593;51.716;7.016;2023-11-19T02:37:54;12.80;99.90
71754;DHT22;59593;51.716;7.016;2023-11-19T02:40:20;12.80;99.90
71754;DHT22;59593;51.716;7.016;2023-11-19T02:42:49;12.80;99.90
71754;DHT22;59593;51.716;7.016;2023-11-19T02:45:15;12.80;99.90
71754;DHT22;59593;51.716;7.016;2023-11-19T02:47:41;12.80;99.90
71754;DHT22;59593;51.716;7.016;2023-11-19T02:50:10;12.80;99.90
71754;DHT22;59593;51.716;7.016;2023-11-19T02:52:45;12.80;99.90
71754;DHT22;59593;51.716;7.016;2023-11-19T02:55:12;12.80;99.90
71754;DHT22;59593;51.716;7.016;2023-11-19T02:57:41;12.80;99.90
71754;DHT22;59593;51.716;7.016;2023-11-19T03:00:18;12.80;99.90
71754;DHT22;59593;51.716;7.016;2023-11-19T03:02:46;12.80;99.90
71754;DHT22;59593;51.716;7.016;2023-11-19T03:05:14;12.80;99.90
71754;DHT22;59593;51.716;7.016;2023-11-19T03:07:43;12.70;99.90
71754;DHT22;59593;51.716;7.016;2023-11-19T03:10:10;12.70;99.90
71754;DHT22;59593;51.716;7.016;2023-11-19T03:12:39;12.70;99.90
71754;DHT22;59593;51.716;7.016;2023-11-19T03:15:06;12.70;99.90
71754;DHT22;59593;51.716;7.016;2023-11-19T03:17:32;12.70;99.90
71754;DHT22;59593;51.716;7.016;2023-11-19T03:19:59;12.60;99.90
71754;DHT22;59593;51.716;7.016;2023-11-19T03:22:26;12.60;99.90
71754;DHT22;59593;51.716;7.016;2023-11-19T03:24:52;12.60;99.90
71754;DHT22;59593;51.716;7.016;2023-11-19T03:27:17;12.60;99.90
71754;DHT22;59593;51.716;7.016;2023-11-19T03:29:43;12.80;99.90
71754;DHT22;59593;51.716;7.016;2023-11-19T03:32:08;12.70;99.90
71754;DHT22;59593;51.716;7.016;2023-11-19T03:34:34;12.70;99.90
71754;DHT22;59593;51.716;7.016;2023-11-19T03:37:00;12.80;99.90
71754;DHT22;59593;51.716;7.016;2023-11-19T03:39:25;12.90;99.90
71754;DHT22;59593;51.716;7.016;2023-11-19T03:41:52;12.90;99.90
71754;DHT22;59593;51.716;7.016;2023-11-19T03:44:18;12.90;99.90
71754;DHT22;59593;51.716;7.016;2023-11-19T03:46:44;12.90;99.90
71754;DHT22;59593;51.716;7.016;2023-11-19T03:49:10;12.90;99.90
71754;DHT22;59593;51.716;7.016;2023-11-19T03:51:35;12.90;99.90
71754;DHT22;59593;51.716;7.016;2023-11-19T03:54:01;12.90;99.90
71754;DHT22;59593;51.716;7.016;2023-11-19T03:56:26;12.90;99.90
71754;DHT22;59593;51.716;7.016;2023-11-19T03:58:52;12.90;99.90
71754;DHT22;59593;51.716;7.016;2023-11-19T04:01:18;12.80;99.90
71754;DHT22;59593;51.716;7.016;2023-11-19T04:03:44;12.70;99.90
71754;DHT22;59593;51.716;7.016;2023-11-19T04:06:09;12.80;99.90
71754;DHT22;59593;51.716;7.016;2023-11-19T04:08:35;12.90;99.90
71754;DHT22;59593;51.716;7.016;2023-11-19T04:11:04;12.90;99.90
71754;DHT22;59593;51.716;7.016;2023-11-19T04:13:30;13.00;99.90
71754;DHT22;59593;51.716;7.016;2023-11-19T04:15:55;12.90;99.90
71754;DHT22;59593;51.716;7.016;2023-11-19T04:18:21;12.90;99.90
71754;DHT22;59593;51.716;7.016;2023-11-19T04:20:46;12.90;99.90
71754;DHT22;59593;51.716;7.016;2023-11-19T04:23:12;12.90;99.90
71754;DHT22;59593;51.716;7.016;2023-11-19T04:25:37;12.90;99.90
71754;DHT22;59593;51.716;7.016;2023-11-19T04:28:03;12.90;99.90
71754;DHT22;59593;51.716;7.016;2023-11-19T04:30:29;12.80;99.90
71754;DHT22;59593;51.716;7.016;2023-11-19T04:32:57;12.80;99.90
71754;DHT22;59593;51.716;7.016;2023-11-19T04:35:23;12.80;99.90
71754;DHT22;59593;51.716;7.016;2023-11-19T04:37:48;12.80;99.90
71754;DHT22;59593;51.716;7.016;2023-11-19T04:40:14;12.70;99.90
71754;DHT22;59593;51.716;7.016;2023-11-19T04:42:40;12.60;99.90
71754;DHT22;59593;51.716;7.016;2023-11-19T04:45:06;12.60;99.90
71754;DHT22;59593;51.716;7.016;2023-11-19T04:47:33;12.60;99.90
71754;DHT22;59593;51.716;7.016;2023-11-19T04:49:59;12.60;99.90
71754;DHT22;59593;51.716;7.016;2023-11-19T04:52:25;12.60;99.90
71754;DHT22;59593;51.716;7.016;2023-11-19T04:54:50;12.50;99.90
71754;DHT22;59593;51.716;7.016;2023-11-19T04:57:17;12.50;99.90
71754;DHT22;59593;51.716;7.016;2023-11-19T04:59:42;12.50;99.90
71754;DHT22;59593;51.716;7.016;2023-11-19T05:02:08;12.40;99.90
71754;DHT22;59593;51.716;7.016;2023-11-19T05:04:34;12.40;99.90
71754;DHT22;59593;51.716;7.016;2023-11-19T05:07:00;12.40;99.90
71754;DHT22;59593;51.716;7.016;2023-11-19T05:09:26;12.30;99.90
71754;DHT22;59593;51.716;7.016;2023-11-19T05:11:51;12.30;99.90
71754;DHT22;59593;51.716;7.016;2023-11-19T05:14:17;12.30;99.90
71754;DHT22;59593;51.716;7.016;2023-11-19T05:16:45;12.20;99.90
71754;DHT22;59593;51.716;7.016;2023-11-19T05:19:11;12.20;99.90
71754;DHT22;59593;51.716;7.016;2023-11-19T05:21:36;12.10;99.90
71754;DHT22;59593;51.716;7.016;2023-11-19T05:24:02;12.10;99.90
71754;DHT22;59593;51.716;7.016;2023-11-19T05:26:31;12.10;99.90
71754;DHT22;59593;51.716;7.016;2023-11-19T05:28:56;12.10;99.90
71754;DHT22;59593;51.716;7.016;2023-11-19T05:31:22;12.20;99.90
71754;DHT22;59593;51.716;7.016;2023-11-19T05:33:48;12.10;99.90
71754;DHT22;59593;51.716;7.016;2023-11-19T05:36:13;12.20;99.90
71754;DHT22;59593;51.716;7.016;2023-11-19T05:38:39;12.10;99.90
71754;DHT22;59593;51.716;7.016;2023-11-19T05:41:05;12.10;99.90
71754;DHT22;59593;51.716;7.016;2023-11-19T05:43:31;12.10;99.90
71754;DHT22;59593;51.716;7.016;2023-11-19T05:45:57;12.10;99.90
71754;DHT22;59593;51.716;7.016;2023-11-19T05:48:24;12.10;99.90
71754;DHT22;59593;51.716;7.016;2023-11-19T05:50:50;12.10;99.90
71754;DHT22;59593;51.716;7.016;2023-11-19T05:53:16;12.20;99.90
71754;DHT22;59593;51.716;7.016;2023-11-19T05:55:42;12.10;99.90
71754;DHT22;59593;51.716;7.016;2023-11-19T05:58:26;12.10;99.90
71754;DHT22;59593;51.716;7.016;2023-11-19T06:00:55;12.10;99.90
71754;DHT22;59593;51.716;7.016;2023-11-19T06:03:21;12.10;99.90
71754;DHT22;59593;51.716;7.016;2023-11-19T06:05:48;12.10;99.90
71754;DHT22;59593;51.716;7.016;2023-11-19T06:08:14;12.10;99.90
71754;DHT22;59593;51.716;7.016;2023-11-19T06:10:43;12.00;99.90
71754;DHT22;59593;51.716;7.016;2023-11-19T06:13:12;12.00;99.90
71754;DHT22;59593;51.716;7.016;2023-11-19T06:15:37;12.10;99.90
71754;DHT22;59593;51.716;7.016;2023-11-19T06:18:03;12.10;99.90
71754;DHT22;59593;51.716;7.016;2023-11-19T06:20:33;12.10;99.90
71754;DHT22;59593;51.716;7.016;2023-11-19T06:22:59;12.20;99.90
71754;DHT22;59593;51.716;7.016;2023-11-19T06:25:25;12.20;99.90
71754;DHT22;59593;51.716;7.016;2023-11-19T06:27:51;12.20;99.90
71754;DHT22;59593;51.716;7.016;2023-11-19T06:30:17;12.20;99.90
71754;DHT22;59593;51.716;7.016;2023-11-19T06:32:43;12.20;99.90
71754;DHT22;59593;51.716;7.016;2023-11-19T06:35:09;12.20;99.90
71754;DHT22;59593;51.716;7.016;2023-11-19T06:37:35;12.20;99.90
71754;DHT22;59593;51.716;7.016;2023-11-19T06:40:01;12.30;99.90
71754;DHT22;59593;51.716;7.016;2023-11-19T06:42:27;12.30;99.90
71754;DHT22;59593;51.716;7.016;2023-11-19T06:44:53;12.30;99.90
71754;DHT22;59593;51.716;7.016;2023-11-19T06:47:18;12.20;99.90
71754;DHT22;59593;51.716;7.016;2023-11-19T06:49:44;12.30;99.90
71754;DHT22;59593;51.716;7.016;2023-11-19T06:52:10;12.30;99.90
71754;DHT22;59593;51.716;7.016;2023-11-19T06:54:35;12.20;99.90
71754;DHT22;59593;51.716;7.016;2023-11-19T06:57:01;12.20;99.90
71754;DHT22;59593;51.716;7.016;2023-11-19T06:59:28;12.20;99.90
71754;DHT22;59593;51.716;7.016;2023-11-19T07:01:55;12.20;99.90
71754;DHT22;59593;51.716;7.016;2023-11-19T07:04:21;12.20;99.90
71754;DHT22;59593;51.716;7.016;2023-11-19T07:06:46;12.20;99.90
71754;DHT22;59593;51.716;7.016;2023-11-19T07:09:13;12.10;99.90
71754;DHT22;59593;51.716;7.016;2023-11-19T07:11:40;12.10;99.90
71754;DHT22;59593;51.716;7.016;2023-11-19T07:14:06;12.10;99.90
71754;DHT22;59593;51.716;7.016;2023-11-19T07:16:33;12.10;99.90
71754;DHT22;59593;51.716;7.016;2023-11-19T07:19:05;12.00;99.90
71754;DHT22;59593;51.716;7.016;2023-11-19T07:21:31;12.00;99.90
71754;DHT22;59593;51.716;7.016;2023-11-19T07:23:59;12.10;99.90
71754;DHT22;59593;51.716;7.016;2023-11-19T07:26:25;12.00;99.90
71754;DHT22;59593;51.716;7.016;2023-11-19T07:28:50;12.00;99.90
71754;DHT22;59593;51.716;7.016;2023-11-19T07:31:16;12.00;99.90
71754;DHT22;59593;51.716;7.016;2023-11-19T07:33:43;12.00;99.90
71754;DHT22;59593;51.716;7.016;2023-11-19T07:36:10;11.90;99.90
71754;DHT22;59593;51.716;7.016;2023-11-19T07:38:36;11.90;99.90
71754;DHT22;59593;51.716;7.016;2023-11-19T07:41:02;12.00;99.90
71754;DHT22;59593;51.716;7.016;2023-11-19T07:43:28;12.00;99.90
71754;DHT22;59593;51.716;7.016;2023-11-19T07:45:53;12.00;99.90
71754;DHT22;59593;51.716;7.016;2023-11-19T07:48:19;12.00;99.90
71754;DHT22;59593;51.716;7.016;2023-11-19T07:50:52;12.00;99.90
71754;DHT22;59593;51.716;7.016;2023-11-19T07:53:18;12.10;99.90
71754;DHT22;59593;51.716;7.016;2023-11-19T07:55:44;12.10;99.90
71754;DHT22;59593;51.716;7.016;2023-11-19T07:58:13;12.10;99.90
71754;DHT22;59593;51.716;7.016;2023-11-19T08:00:38;12.10;99.90
71754;DHT22;59593;51.716;7.016;2023-11-19T08:03:05;12.10;99.90
71754;DHT22;59593;51.716;7.016;2023-11-19T08:05:31;12.20;99.90
71754;DHT22;59593;51.716;7.016;2023-11-19T08:07:57;12.20;99.90
71754;DHT22;59593;51.716;7.016;2023-11-19T08:10:23;12.20;99.90
71754;DHT22;59593;51.716;7.016;2023-11-19T08:12:49;12.20;99.90
71754;DHT22;59593;51.716;7.016;2023-11-19T08:15:15;12.30;99.90
71754;DHT22;59593;51.716;7.016;2023-11-19T08:17:41;12.30;99.90
71754;DHT22;59593;51.716;7.016;2023-11-19T08:20:09;12.30;99.90
71754;DHT22;59593;51.716;7.016;2023-11-19T08:22:37;12.30;99.90
71754;DHT22;59593;51.716;7.016;2023-11-19T08:25:07;12.40;99.90
71754;DHT22;59593;51.716;7.016;2023-11-19T08:27:33;12.40;99.90
71754;DHT22;59593;51.716;7.016;2023-11-19T08:29:59;12.40;99.90
71754;DHT22;59593;51.716;7.016;2023-11-19T08:32:26;12.40;99.90
71754;DHT22;59593;51.716;7.016;2023-11-19T08:34:51;12.30;99.90
71754;DHT22;59593;51.716;7.016;2023-11-19T08:37:17;12.30;99.90
71754;DHT22;59593;51.716;7.016;2023-11-19T08:39:46;12.30;99.90
71754;DHT22;59593;51.716;7.016;2023-11-19T08:42:12;12.30;99.90
71754;DHT22;59593;51.716;7.016;2023-11-19T08:44:37;12.30;99.90
71754;DHT22;59593;51.716;7.016;2023-11-19T08:47:03;12.40;99.90
71754;DHT22;59593;51.716;7.016;2023-11-19T08:49:29;12.40;99.90
71754;DHT22;59593;51.716;7.016;2023-11-19T08:51:55;12.40;99.90
71754;DHT22;59593;51.716;7.016;2023-11-19T08:54:20;12.40;99.90
71754;DHT22;59593;51.716;7.016;2023-11-19T08:56:48;12.40;99.90
71754;DHT22;59593;51.716;7.016;2023-11-19T08:59:13;12.50;99.90
71754;DHT22;59593;51.716;7.016;2023-11-19T09:01:40;12.60;99.90
71754;DHT22;59593;51.716;7.016;2023-11-19T09:04:06;12.60;99.90
71754;DHT22;59593;51.716;7.016;2023-11-19T09:06:32;12.60;99.90
71754;DHT22;59593;51.716;7.016;2023-11-19T09:08:58;12.60;99.90
71754;DHT22;59593;51.716;7.016;2023-11-19T09:11:27;12.50;99.90
71754;DHT22;59593;51.716;7.016;2023-11-19T09:13:53;12.50;99.90
71754;DHT22;59593;51.716;7.016;2023-11-19T09:16:19;12.50;99.90
71754;DHT22;59593;51.716;7.016;2023-11-19T09:18:44;12.60;99.90
71754;DHT22;59593;51.716;7.016;2023-11-19T09:21:13;12.60;99.90
71754;DHT22;59593;51.716;7.016;2023-11-19T09:23:38;12.60;99.90
71754;DHT22;59593;51.716;7.016;2023-11-19T09:26:10;12.60;99.90
71754;DHT22;59593;51.716;7.016;2023-11-19T09:28:36;12.70;99.90
71754;DHT22;59593;51.716;7.016;2023-11-19T09:31:02;12.70;99.90
71754;DHT22;59593;51.716;7.016;2023-11-19T09:33:30;12.70;99.90
71754;DHT22;59593;51.716;7.016;2023-11-19T09:35:56;12.80;99.90
71754;DHT22;59593;51.716;7.016;2023-11-19T09:38:23;12.90;99.90
71754;DHT22;59593;51.716;7.016;2023-11-19T09:40:48;12.90;99.90
71754;DHT22;59593;51.716;7.016;2023-11-19T09:43:15;12.90;99.90
71754;DHT22;59593;51.716;7.016;2023-11-19T09:45:50;12.80;99.90
71754;DHT22;59593;51.716;7.016;2023-11-19T09:48:19;12.80;99.90
71754;DHT22;59593;51.716;7.016;2023-11-19T09:50:48;12.80;99.90
71754;DHT22;59593;51.716;7.016;2023-11-19T09:53:15;12.80;99.90
71754;DHT22;59593;51.716;7.016;2023-11-19T09:55:44;12.90;99.90
71754;DHT22;59593;51.716;7.016;2023-11-19T09:58:12;12.80;99.90
71754;DHT22;59593;51.716;7.016;2023-11-19T10:00:40;12.80;99.90
71754;DHT22;59593;51.716;7.016;2023-11-19T10:03:07;12.80;99.90
71754;DHT22;59593;51.716;7.016;2023-11-19T10:05:33;12.90;99.90
71754;DHT22;59593;51.716;7.016;2023-11-19T10:07:58;13.00;99.90
71754;DHT22;59593;51.716;7.016;2023-11-19T10:10:24;13.00;99.90
71754;DHT22;59593;51.716;7.016;2023-11-19T10:12:53;13.10;99.90
71754;DHT22;59593;51.716;7.016;2023-11-19T10:15:21;13.10;99.90
71754;DHT22;59593;51.716;7.016;2023-11-19T10:17:48;13.20;99.90
71754;DHT22;59593;51.716;7.016;2023-11-19T10:20:14;13.10;99.90
71754;DHT22;59593;51.716;7.016;2023-11-19T10:22:40;13.00;99.90
71754;DHT22;59593;51.716;7.016;2023-11-19T10:25:23;13.00;99.90
71754;DHT22;59593;51.716;7.016;2023-11-19T10:27:50;13.10;99.90
71754;DHT22;59593;51.716;7.016;2023-11-19T10:30:42;13.00;99.90
71754;DHT22;59593;51.716;7.016;2023-11-19T10:33:12;12.90;99.90
71754;DHT22;59593;51.716;7.016;2023-11-19T10:35:56;12.90;99.90
71754;DHT22;59593;51.716;7.016;2023-11-19T10:38:23;12.90;99.90
71754;DHT22;59593;51.716;7.016;2023-11-19T10:40:49;12.90;99.90
71754;DHT22;59593;51.716;7.016;2023-11-19T10:43:16;12.90;99.90
71754;DHT22;59593;51.716;7.016;2023-11-19T10:45:43;12.90;99.90
71754;DHT22;59593;51.716;7.016;2023-11-19T10:48:09;12.90;99.90
71754;DHT22;59593;51.716;7.016;2023-11-19T10:50:36;12.90;99.90
71754;DHT22;59593;51.716;7.016;2023-11-19T10:53:04;12.90;99.90
71754;DHT22;59593;51.716;7.016;2023-11-19T10:55:32;13.00;99.90
71754;DHT22;59593;51.716;7.016;2023-11-19T10:58:03;13.10;99.90
71754;DHT22;59593;51.716;7.016;2023-11-19T11:00:52;13.10;99.90
71754;DHT22;59593;51.716;7.016;2023-11-19T11:03:24;13.20;99.90
71754;DHT22;59593;51.716;7.016;2023-11-19T11:05:51;13.10;99.90
71754;DHT22;59593;51.716;7.016;2023-11-19T11:08:18;13.40;99.90
71754;DHT22;59593;51.716;7.016;2023-11-19T11:10:54;13.60;99.90
71754;DHT22;59593;51.716;7.016;2023-11-19T11:13:22;13.70;99.90
71754;DHT22;59593;51.716;7.016;2023-11-19T11:15:50;13.60;99.90
71754;DHT22;59593;51.716;7.016;2023-11-19T11:18:16;13.50;99.90
71754;DHT22;59593;51.716;7.016;2023-11-19T11:20:46;13.40;99.90
71754;DHT22;59593;51.716;7.016;2023-11-19T11:23:37;13.30;99.90
71754;DHT22;59593;51.716;7.016;2023-11-19T11:28:46;13.30;99.90
71754;DHT22;59593;51.716;7.016;2023-11-19T11:34:28;13.30;99.90
71754;DHT22;59593;51.716;7.016;2023-11-19T11:39:41;13.30;99.90
71754;DHT22;59593;51.716;7.016;2023-11-19T11:45:09;13.30;99.90
71754;DHT22;59593;51.716;7.016;2023-11-19T11:50:18;13.30;99.90
71754;DHT22;59593;51.716;7.016;2023-11-19T11:55:28;13.20;99.90
71754;DHT22;59593;51.716;7.016;2023-11-19T11:57:55;13.40;99.90
71754;DHT22;59593;51.716;7.016;2023-11-19T12:00:32;13.60;99.90
71754;DHT22;59593;51.716;7.016;2023-11-19T12:03:00;14.10;99.90
71754;DHT22;59593;51.716;7.016;2023-11-19T12:05:27;14.10;99.90
71754;DHT22;59593;51.716;7.016;2023-11-19T12:07:57;13.90;99.90
71754;DHT22;59593;51.716;7.016;2023-11-19T12:10:25;13.80;99.90
71754;DHT22;59593;51.716;7.016;2023-11-19T12:12:59;13.60;99.90
71754;DHT22;59593;51.716;7.016;2023-11-19T12:15:25;13.60;99.90
71754;DHT22;59593;51.716;7.016;2023-11-19T12:17:53;13.60;99.90
71754;DHT22;59593;51.716;7.016;2023-11-19T12:20:23;13.70;99.90
71754;DHT22;59593;51.716;7.016;2023-11-19T12:22:50;13.70;99.90
71754;DHT22;59593;51.716;7.016;2023-11-19T12:25:17;13.70;99.90
71754;DHT22;59593;51.716;7.016;2023-11-19T12:27:45;13.70;99.90
71754;DHT22;59593;51.716;7.016;2023-11-19T12:30:11;13.70;99.90
71754;DHT22;59593;51.716;7.016;2023-11-19T12:35:04;13.70;99.90
71754;DHT22;59593;51.716;7.016;2023-11-19T12:37:30;13.70;99.90
71754;DHT22;59593;51.716;7.016;2023-11-19T12:39:57;13.70;99.90
71754;DHT22;59593;51.716;7.016;2023-11-19T12:42:44;13.70;99.90
71754;DHT22;59593;51.716;7.016;2023-11-19T12:45:10;13.80;99.90
71754;DHT22;59593;51.716;7.016;2023-11-19T12:47:37;13.80;99.90
71754;DHT22;59593;51.716;7.016;2023-11-19T12:50:03;13.70;99.90
71754;DHT22;59593;51.716;7.016;2023-11-19T12:52:29;13.60;99.90
71754;DHT22;59593;51.716;7.016;2023-11-19T12:54:55;13.60;99.90
71754;DHT22;59593;51.716;7.016;2023-11-19T12:57:39;13.60;99.90
71754;DHT22;59593;51.716;7.016;2023-11-19T13:00:05;13.50;99.90
71754;DHT22;59593;51.716;7.016;2023-11-19T13:08:03;13.40;99.90
71754;DHT22;59593;51.716;7.016;2023-11-19T13:13:14;13.80;99.90
71754;DHT22;59593;51.716;7.016;2023-11-19T13:15:40;13.70;99.90
71754;DHT22;59593;51.716;7.016;2023-11-19T13:18:05;13.40;99.90
71754;DHT22;59593;51.716;7.016;2023-11-19T13:20:32;13.30;99.90
71754;DHT22;59593;51.716;7.016;2023-11-19T13:25:25;13.40;99.90
71754;DHT22;59593;51.716;7.016;2023-11-19T13:27:51;13.30;99.90
71754;DHT22;59593;51.716;7.016;2023-11-19T13:30:16;13.50;99.90
71754;DHT22;59593;51.716;7.016;2023-11-19T13:32:42;13.70;99.90
71754;DHT22;59593;51.716;7.016;2023-11-19T13:35:09;14.10;99.90
71754;DHT22;59593;51.716;7.016;2023-11-19T13:37:35;14.40;99.90
71754;DHT22;59593;51.716;7.016;2023-11-19T13:40:01;13.80;99.90
71754;DHT22;59593;51.716;7.016;2023-11-19T13:42:26;13.40;99.90
71754;DHT22;59593;51.716;7.016;2023-11-19T13:44:52;13.20;99.90
71754;DHT22;59593;51.716;7.016;2023-11-19T13:47:18;13.20;99.90
71754;DHT22;59593;51.716;7.016;2023-11-19T13:49:44;13.20;99.90
71754;DHT22;59593;51.716;7.016;2023-11-19T13:52:10;13.20;99.90
71754;DHT22;59593;51.716;7.016;2023-11-19T13:54:37;13.20;99.90
71754;DHT22;59593;51.716;7.016;2023-11-19T13:57:03;13.30;99.90
71754;DHT22;59593;51.716;7.016;2023-11-19T13:59:32;13.30;99.90
71754;DHT22;59593;51.716;7.016;2023-11-19T14:01:58;13.20;99.90
71754;DHT22;59593;51.716;7.016;2023-11-19T14:04:24;13.20;99.90
71754;DHT22;59593;51.716;7.016;2023-11-19T14:06:50;13.10;99.90
71754;DHT22;59593;51.716;7.016;2023-11-19T14:09:16;13.20;99.90
71754;DHT22;59593;51.716;7.016;2023-11-19T14:11:43;13.20;99.90
71754;DHT22;59593;51.716;7.016;2023-11-19T14:14:08;13.20;99.90
71754;DHT22;59593;51.716;7.016;2023-11-19T14:16:34;13.20;99.90
71754;DHT22;59593;51.716;7.016;2023-11-19T14:19:00;13.20;99.90
71754;DHT22;59593;51.716;7.016;2023-11-19T14:21:25;13.10;99.90
71754;DHT22;59593;51.716;7.016;2023-11-19T14:23:52;13.10;99.90
71754;DHT22;59593;51.716;7.016;2023-11-19T14:26:18;13.10;99.90
71754;DHT22;59593;51.716;7.016;2023-11-19T14:28:44;13.10;99.90
71754;DHT22;59593;51.716;7.016;2023-11-19T14:31:09;13.10;99.90
71754;DHT22;59593;51.716;7.016;2023-11-19T14:33:35;13.10;99.90
71754;DHT22;59593;51.716;7.016;2023-11-19T14:36:01;13.00;99.90
71754;DHT22;59593;51.716;7.016;2023-11-19T14:38:27;13.00;99.90
71754;DHT22;59593;51.716;7.016;2023-11-19T14:40:53;13.00;99.90
71754;DHT22;59593;51.716;7.016;2023-11-19T14:43:18;13.10;99.90
71754;DHT22;59593;51.716;7.016;2023-11-19T14:45:44;13.00;99.90
71754;DHT22;59593;51.716;7.016;2023-11-19T14:48:09;12.90;99.90
71754;DHT22;59593;51.716;7.016;2023-11-19T14:50:35;12.80;99.90
71754;DHT22;59593;51.716;7.016;2023-11-19T14:53:01;12.80;99.90
71754;DHT22;59593;51.716;7.016;2023-11-19T14:55:27;12.70;99.90
71754;DHT22;59593;51.716;7.016;2023-11-19T14:57:53;12.60;99.90
71754;DHT22;59593;51.716;7.016;2023-11-19T15:00:19;12.60;99.90
71754;DHT22;59593;51.716;7.016;2023-11-19T15:02:45;12.50;99.90
71754;DHT22;59593;51.716;7.016;2023-11-19T15:05:10;12.50;99.90
71754;DHT22;59593;51.716;7.016;2023-11-19T15:07:37;12.50;99.90
71754;DHT22;59593;51.716;7.016;2023-11-19T15:10:03;12.50;99.90
71754;DHT22;59593;51.716;7.016;2023-11-19T15:12:29;12.40;99.90
71754;DHT22;59593;51.716;7.016;2023-11-19T15:14:55;12.40;99.90
71754;DHT22;59593;51.716;7.016;2023-11-19T15:17:20;12.40;99.90
71754;DHT22;59593;51.716;7.016;2023-11-19T15:19:47;12.40;99.90
71754;DHT22;59593;51.716;7.016;2023-11-19T15:22:13;12.40;99.90
71754;DHT22;59593;51.716;7.016;2023-11-19T15:24:39;12.40;99.90
71754;DHT22;59593;51.716;7.016;2023-11-19T15:27:07;12.40;99.90
71754;DHT22;59593;51.716;7.016;2023-11-19T15:29:34;12.40;99.90
71754;DHT22;59593;51.716;7.016;2023-11-19T15:32:00;12.40;99.90
71754;DHT22;59593;51.716;7.016;2023-11-19T15:34:25;12.40;99.90
71754;DHT22;59593;51.716;7.016;2023-11-19T15:36:51;12.30;99.90
71754;DHT22;59593;51.716;7.016;2023-11-19T15:39:16;12.30;99.90
71754;DHT22;59593;51.716;7.016;2023-11-19T15:41:42;12.30;99.90
71754;DHT22;59593;51.716;7.016;2023-11-19T15:44:08;12.30;99.90
71754;DHT22;59593;51.716;7.016;2023-11-19T15:46:33;12.30;99.90
71754;DHT22;59593;51.716;7.016;2023-11-19T15:48:59;12.20;99.90
71754;DHT22;59593;51.716;7.016;2023-11-19T15:51:24;12.30;99.90
71754;DHT22;59593;51.716;7.016;2023-11-19T15:53:50;12.20;99.90
71754;DHT22;59593;51.716;7.016;2023-11-19T15:56:15;12.20;99.90
71754;DHT22;59593;51.716;7.016;2023-11-19T15:58:41;12.20;99.90
71754;DHT22;59593;51.716;7.016;2023-11-19T16:01:07;12.20;99.90